ヌーク の空港の天気 - METARとTAF

ヌーク空港 ( BGGH / GOH ) - グリーンランド ヌーク
飛行場実況気象(Metar)
観測時間11/26 18:50 WGT (11/26 21:50 UTC)
風向・風速不定 1m/s
視程10km以上
天気現象
少しの雲 雲底高度 150m
全天の4割程度の雲 雲底高度 610m
全天の8割程度の雲 雲底高度 1040m
気温-2℃
湿度86%
気圧1001hPa
METARBGGH 262150Z VRB02KT 9999 FEW005 SCT020 BKN034 M02/M04 Q1001
過去の天気等 Google飛行場航空写真 Wunderground天気予報

過去48時間のMETAR

飛行場予報(TAF)
発表時間: 11/26 14:21 WGT (11/26 17:21 UTC)
予報対象時間: 26日15時 WGT ~ 26日19時 WGT
風向・風速西南西 5m/s
視程10km以上
天気現象弱い雪
少しの雲 雲底高度 210m
全天の8割程度の雲 雲底高度 760m
26日15時 WGT ~ 26日19時 WGT に一時的に
視程6000m
天気現象弱い氷霧雨
全天の8割程度の雲 雲底高度 210m
TAF BGGH 261721Z 2618/2622 24010KT 9999 -SN FEW007 BKN025
TEMPO 2618/2622 6000 -FZDZ BKN007